createdAt,value
2019-05-03T00:00:02.689Z,16.00
2019-05-03T00:02:56.950Z,15.90
2019-05-03T00:05:32.451Z,15.90
2019-05-03T00:08:06.657Z,15.90
2019-05-03T00:10:37.812Z,15.90
2019-05-03T00:13:07.236Z,15.90
2019-05-03T00:15:55.786Z,15.90
2019-05-03T00:18:25.622Z,15.90
2019-05-03T00:20:55.918Z,15.90
2019-05-03T00:23:26.514Z,15.90
2019-05-03T00:25:55.945Z,15.90
2019-05-03T00:28:25.408Z,15.90
2019-05-03T00:30:54.939Z,15.90
2019-05-03T00:33:24.330Z,15.90
2019-05-03T00:36:18.606Z,15.90
2019-05-03T00:38:48.477Z,15.90
2019-05-03T00:41:17.854Z,15.90
2019-05-03T00:43:47.342Z,15.90
2019-05-03T00:46:16.712Z,15.90
2019-05-03T00:48:46.158Z,15.90
2019-05-03T00:51:15.442Z,15.90
2019-05-03T00:53:44.750Z,15.90
2019-05-03T00:56:14.813Z,15.90
2019-05-03T00:58:56.935Z,15.90
2019-05-03T01:01:26.453Z,15.90
2019-05-03T01:03:55.879Z,15.90
2019-05-03T01:06:25.231Z,15.90
2019-05-03T01:08:54.705Z,15.90
2019-05-03T01:11:23.906Z,15.90
2019-05-03T01:13:53.313Z,15.90
2019-05-03T01:16:23.748Z,15.90
2019-05-03T01:18:53.175Z,15.90
2019-05-03T01:21:22.809Z,15.90
2019-05-03T01:23:52.660Z,15.90
2019-05-03T01:26:22.800Z,15.90
2019-05-03T01:28:52.797Z,15.90
2019-05-03T01:31:23.077Z,15.90
2019-05-03T01:33:52.801Z,15.90
2019-05-03T01:36:22.877Z,15.80
2019-05-03T01:38:53.162Z,15.90
2019-05-03T01:41:23.371Z,15.80
2019-05-03T01:43:52.843Z,15.80
2019-05-03T01:46:22.929Z,15.80
2019-05-03T01:49:14.762Z,15.80
2019-05-03T01:52:06.568Z,15.80
2019-05-03T01:54:36.023Z,15.80
2019-05-03T01:57:08.811Z,15.80
2019-05-03T01:59:38.045Z,15.80
2019-05-03T02:02:23.087Z,15.80
2019-05-03T02:05:32.098Z,15.80
2019-05-03T02:08:02.108Z,15.80
2019-05-03T02:10:32.208Z,15.80
2019-05-03T02:13:01.771Z,15.80
2019-05-03T02:15:32.681Z,15.80
2019-05-03T02:18:02.791Z,15.80
2019-05-03T02:20:32.454Z,15.80
2019-05-03T02:23:02.785Z,15.80
2019-05-03T02:25:32.398Z,15.80
2019-05-03T02:28:03.241Z,15.80
2019-05-03T02:30:33.402Z,15.80
2019-05-03T02:33:04.054Z,15.80
2019-05-03T02:35:34.067Z,15.80
2019-05-03T02:38:08.755Z,15.80
2019-05-03T02:40:38.536Z,15.80
2019-05-03T02:43:13.238Z,15.80
2019-05-03T02:46:10.715Z,15.80
2019-05-03T02:48:47.806Z,15.80
2019-05-03T02:51:17.137Z,15.80
2019-05-03T02:53:46.721Z,15.80
2019-05-03T02:56:22.256Z,15.80
2019-05-03T02:58:47.300Z,15.80
2019-05-03T03:01:16.680Z,15.80
2019-05-03T03:03:46.084Z,15.80
2019-05-03T03:06:15.869Z,15.80
2019-05-03T03:08:45.634Z,15.80
2019-05-03T03:11:15.591Z,15.80
2019-05-03T03:13:45.800Z,15.80
2019-05-03T03:16:17.226Z,15.80
2019-05-03T03:18:46.803Z,15.80
2019-05-03T03:21:18.133Z,15.80
2019-05-03T03:24:09.461Z,15.80
2019-05-03T03:26:43.143Z,15.80
2019-05-03T03:29:15.429Z,15.80
2019-05-03T03:32:08.984Z,15.80
2019-05-03T03:34:48.057Z,15.80
2019-05-03T03:37:15.621Z,15.80
2019-05-03T03:39:45.770Z,15.80
2019-05-03T03:42:16.247Z,15.80
2019-05-03T03:44:46.000Z,15.80
2019-05-03T03:47:16.606Z,15.80
2019-05-03T03:49:46.607Z,15.80
2019-05-03T03:52:16.214Z,15.80
2019-05-03T03:54:45.816Z,15.80
2019-05-03T03:57:17.481Z,15.80
2019-05-03T03:59:46.866Z,15.80
2019-05-03T04:02:16.322Z,15.80
2019-05-03T04:04:50.712Z,15.80
2019-05-03T04:07:46.158Z,15.80
2019-05-03T04:10:37.781Z,15.80
2019-05-03T04:13:08.844Z,15.80
2019-05-03T04:16:12.387Z,15.80
2019-05-03T04:18:48.563Z,15.80
2019-05-03T04:21:17.935Z,15.80
2019-05-03T04:23:47.324Z,15.80
2019-05-03T04:26:16.714Z,15.80
2019-05-03T04:28:47.105Z,15.80
2019-05-03T04:31:16.554Z,15.80
2019-05-03T04:33:45.934Z,15.80
2019-05-03T04:36:15.913Z,15.80
2019-05-03T04:38:45.788Z,15.80
2019-05-03T04:41:16.926Z,15.70
2019-05-03T04:43:46.524Z,15.80
2019-05-03T04:46:20.054Z,15.70
2019-05-03T04:48:50.587Z,15.70
2019-05-03T04:51:20.022Z,15.70
2019-05-03T04:54:09.035Z,15.70
2019-05-03T04:56:38.281Z,15.70
2019-05-03T04:59:07.648Z,15.70
2019-05-03T05:01:36.899Z,15.70
2019-05-03T05:04:06.314Z,15.70
2019-05-03T05:06:38.538Z,15.70
2019-05-03T05:09:08.267Z,15.70
2019-05-03T05:11:37.840Z,15.70
2019-05-03T05:14:10.081Z,15.70
2019-05-03T05:16:39.880Z,15.70
2019-05-03T05:19:11.845Z,15.70
2019-05-03T05:21:45.065Z,15.70
2019-05-03T05:24:15.120Z,15.70
2019-05-03T05:26:55.028Z,15.70
2019-05-03T05:29:26.909Z,15.70
2019-05-03T05:31:56.585Z,15.70
2019-05-03T05:34:25.946Z,15.70
2019-05-03T05:36:55.448Z,15.70
2019-05-03T05:39:24.879Z,15.70
2019-05-03T05:41:55.462Z,15.70
2019-05-03T05:44:26.750Z,15.70
2019-05-03T05:47:27.085Z,15.70
2019-05-03T05:50:00.906Z,15.70
2019-05-03T05:52:30.305Z,15.70
2019-05-03T05:55:12.139Z,15.70
2019-05-03T05:58:02.978Z,15.70
2019-05-03T06:00:29.029Z,15.70
2019-05-03T06:02:58.473Z,15.70
2019-05-03T06:05:28.101Z,15.70
2019-05-03T06:08:11.156Z,15.70
2019-05-03T06:10:49.410Z,15.70
2019-05-03T06:13:37.899Z,15.70
2019-05-03T06:16:12.946Z,15.70
2019-05-03T06:19:01.252Z,15.70
2019-05-03T06:21:35.558Z,15.70
2019-05-03T06:24:09.926Z,15.70
2019-05-03T06:26:47.564Z,15.70
2019-05-03T06:29:17.022Z,15.70
2019-05-03T06:32:05.375Z,15.70
2019-05-03T06:34:35.484Z,15.70
2019-05-03T06:37:08.780Z,15.70
2019-05-03T06:39:38.195Z,15.70
2019-05-03T06:42:09.851Z,15.70
2019-05-03T06:44:38.606Z,15.70
2019-05-03T06:47:10.441Z,15.70
2019-05-03T06:49:44.162Z,15.70
2019-05-03T06:52:10.444Z,15.70
2019-05-03T06:54:39.897Z,15.70
2019-05-03T06:57:10.795Z,15.70
2019-05-03T06:59:46.045Z,15.70
2019-05-03T07:02:35.524Z,15.70
2019-05-03T07:05:07.186Z,15.70
2019-05-03T07:07:47.979Z,15.70
2019-05-03T07:10:32.148Z,15.70
2019-05-03T07:13:04.755Z,15.70
2019-05-03T07:15:35.185Z,15.70
2019-05-03T07:18:05.763Z,15.70
2019-05-03T07:20:49.511Z,15.70
2019-05-03T07:23:18.853Z,15.70
2019-05-03T07:25:48.306Z,15.70
2019-05-03T07:28:17.734Z,15.70
2019-05-03T07:30:47.127Z,15.70
2019-05-03T07:33:22.595Z,15.70
2019-05-03T07:35:52.128Z,15.70
2019-05-03T07:38:21.589Z,15.70
2019-05-03T07:40:50.874Z,15.70
2019-05-03T07:43:20.087Z,15.70
2019-05-03T07:45:50.187Z,15.70
2019-05-03T07:48:19.637Z,15.70
2019-05-03T07:50:49.077Z,15.70
2019-05-03T07:53:18.360Z,15.70
2019-05-03T07:55:59.038Z,15.70
2019-05-03T07:58:28.585Z,15.70
2019-05-03T08:01:06.317Z,15.70
2019-05-03T08:03:30.757Z,15.70
2019-05-03T08:06:00.099Z,15.70
2019-05-03T08:08:29.374Z,15.70
2019-05-03T08:10:58.890Z,15.70
2019-05-03T08:13:28.335Z,15.70
2019-05-03T08:15:57.708Z,15.70
2019-05-03T08:18:27.183Z,15.70
2019-05-03T08:20:56.936Z,15.70
2019-05-03T08:23:30.169Z,15.70
2019-05-03T08:25:57.530Z,15.70
2019-05-03T08:28:26.914Z,15.70
2019-05-03T08:31:15.098Z,15.70
2019-05-03T08:33:56.763Z,15.70
2019-05-03T08:36:26.073Z,15.70
2019-05-03T08:38:56.373Z,15.70
2019-05-03T08:41:27.753Z,15.70
2019-05-03T08:43:57.001Z,15.70
2019-05-03T08:46:26.404Z,15.70
2019-05-03T08:48:55.826Z,15.70
2019-05-03T08:51:25.205Z,15.60
2019-05-03T08:53:55.986Z,15.60
2019-05-03T08:56:25.625Z,15.70
2019-05-03T08:58:55.503Z,15.60
2019-05-03T09:01:25.338Z,15.70
2019-05-03T09:03:56.453Z,15.60
2019-05-03T09:06:25.922Z,15.70
2019-05-03T09:08:57.278Z,15.60
2019-05-03T09:11:33.573Z,15.60
2019-05-03T09:13:59.943Z,15.60
2019-05-03T09:16:29.502Z,15.70
2019-05-03T09:18:58.962Z,15.70
2019-05-03T09:21:28.968Z,15.60
2019-05-03T09:23:58.754Z,15.60
2019-05-03T09:26:29.771Z,15.70
2019-05-03T09:28:59.455Z,15.60
2019-05-03T09:31:28.999Z,15.60
2019-05-03T09:33:58.783Z,15.60
2019-05-03T09:36:28.175Z,15.70
2019-05-03T09:38:57.592Z,15.70
2019-05-03T09:41:26.946Z,15.60
2019-05-03T09:43:56.458Z,15.60
2019-05-03T09:46:26.620Z,15.70
2019-05-03T09:49:03.570Z,15.60
2019-05-03T09:51:27.275Z,15.60
2019-05-03T09:54:01.956Z,15.60
2019-05-03T09:56:55.839Z,15.60
2019-05-03T09:59:20.109Z,15.60
2019-05-03T10:01:49.737Z,15.60
2019-05-03T10:04:19.105Z,15.60
2019-05-03T10:06:48.485Z,15.60
2019-05-03T10:09:17.825Z,15.60
2019-05-03T10:11:47.325Z,15.60
2019-05-03T10:14:16.755Z,15.60
2019-05-03T10:16:54.775Z,15.60
2019-05-03T10:19:37.026Z,15.60
2019-05-03T10:21:57.096Z,15.60
2019-05-03T10:24:26.466Z,15.60
2019-05-03T10:26:55.944Z,15.60
2019-05-03T10:29:25.549Z,15.60
2019-05-03T10:32:16.729Z,15.60
2019-05-03T10:34:58.178Z,15.60
2019-05-03T10:37:31.571Z,15.60
2019-05-03T10:40:05.179Z,15.60
2019-05-03T10:42:35.155Z,15.70
2019-05-03T10:45:04.662Z,15.60
2019-05-03T10:47:34.921Z,15.60
2019-05-03T10:50:04.907Z,15.60
2019-05-03T10:52:40.100Z,15.60
2019-05-03T10:55:09.678Z,15.60
2019-05-03T10:57:44.805Z,15.70
2019-05-03T11:00:41.598Z,15.60
2019-05-03T11:02:52.142Z,15.60
2019-05-03T11:05:21.613Z,15.60
2019-05-03T11:07:51.133Z,15.60
2019-05-03T11:10:20.658Z,15.70
2019-05-03T11:12:50.076Z,15.60
2019-05-03T11:15:19.508Z,15.60
2019-05-03T11:17:48.890Z,15.60
2019-05-03T11:20:32.114Z,15.70
2019-05-03T11:23:01.880Z,15.60
2019-05-03T11:25:31.288Z,15.60
2019-05-03T11:28:02.314Z,15.60
2019-05-03T11:30:31.611Z,15.60
2019-05-03T11:33:15.563Z,15.60
2019-05-03T11:36:07.929Z,15.60
2019-05-03T11:38:39.938Z,15.60
2019-05-03T11:41:09.371Z,15.60
2019-05-03T11:43:39.272Z,15.60
2019-05-03T11:46:08.769Z,15.60
2019-05-03T11:48:38.081Z,15.60
2019-05-03T11:51:07.570Z,15.60
2019-05-03T11:53:36.849Z,15.60
2019-05-03T11:56:06.200Z,15.60
2019-05-03T11:58:35.471Z,15.60
2019-05-03T12:01:19.651Z,15.70
2019-05-03T12:03:51.821Z,15.60
2019-05-03T12:06:21.168Z,15.70
2019-05-03T12:08:50.518Z,15.60
2019-05-03T12:11:19.997Z,15.60
2019-05-03T12:14:01.676Z,15.60
2019-05-03T12:16:32.256Z,15.70
2019-05-03T12:18:53.977Z,15.60
2019-05-03T12:21:25.677Z,15.60
2019-05-03T12:23:56.052Z,15.70
2019-05-03T12:26:25.913Z,15.70
2019-05-03T12:28:56.025Z,15.60
2019-05-03T12:31:37.064Z,15.70
2019-05-03T12:34:05.459Z,15.70
2019-05-03T12:36:56.095Z,15.70
2019-05-03T12:39:30.059Z,15.70
2019-05-03T12:41:56.691Z,15.70
2019-05-03T12:44:26.201Z,15.70
2019-05-03T12:46:55.694Z,15.70
2019-05-03T12:49:25.199Z,15.70
2019-05-03T12:51:55.824Z,15.70
2019-05-03T12:54:27.012Z,15.70
2019-05-03T12:56:56.693Z,15.70
2019-05-03T13:00:00.094Z,15.70
2019-05-03T13:02:48.648Z,15.70
2019-05-03T13:05:17.915Z,15.60
2019-05-03T13:08:06.253Z,15.60
2019-05-03T13:10:36.315Z,15.70
2019-05-03T13:13:05.700Z,15.70
2019-05-03T13:15:35.278Z,15.70
2019-05-03T13:18:05.038Z,15.70
2019-05-03T13:20:36.047Z,15.70
2019-05-03T13:23:05.613Z,15.70
2019-05-03T13:25:35.574Z,15.70
2019-05-03T13:28:05.574Z,15.70
2019-05-03T13:30:35.374Z,15.70
2019-05-03T13:33:05.835Z,15.70
2019-05-03T13:35:35.571Z,15.70
2019-05-03T13:38:05.312Z,15.70
2019-05-03T13:40:35.912Z,15.70
2019-05-03T13:43:06.607Z,15.70
2019-05-03T13:45:35.991Z,15.70
2019-05-03T13:48:05.316Z,15.70
2019-05-03T13:50:35.200Z,15.70
2019-05-03T13:53:04.915Z,15.70
2019-05-03T13:55:35.313Z,15.70
2019-05-03T13:58:05.252Z,15.70
2019-05-03T14:00:34.895Z,15.70
2019-05-03T14:03:04.657Z,15.60
2019-05-03T14:05:35.176Z,15.70
2019-05-03T14:08:05.217Z,15.60
2019-05-03T14:10:35.890Z,15.70
2019-05-03T14:13:05.916Z,15.60
2019-05-03T14:15:35.406Z,15.60
2019-05-03T14:18:05.977Z,15.70
2019-05-03T14:20:55.048Z,15.60
2019-05-03T14:23:25.419Z,15.60
2019-05-03T14:25:55.366Z,15.60
2019-05-03T14:28:25.297Z,15.60
2019-05-03T14:30:55.084Z,15.70
2019-05-03T14:33:26.795Z,15.70
2019-05-03T14:35:56.060Z,15.70
2019-05-03T14:38:25.592Z,15.60
2019-05-03T14:40:55.276Z,15.60
2019-05-03T14:43:25.053Z,15.70
2019-05-03T14:45:55.050Z,15.60
2019-05-03T14:48:25.163Z,15.60
2019-05-03T14:50:54.968Z,15.60
2019-05-03T14:53:25.651Z,15.60
2019-05-03T14:56:05.009Z,15.70
2019-05-03T14:59:06.381Z,15.60
2019-05-03T15:01:41.448Z,15.60
2019-05-03T15:04:10.759Z,15.60
2019-05-03T15:06:41.621Z,15.60
2019-05-03T15:09:11.003Z,15.60
2019-05-03T15:11:40.535Z,15.60
2019-05-03T15:14:09.975Z,15.60
2019-05-03T15:16:39.356Z,15.60
2019-05-03T15:19:08.848Z,15.60
2019-05-03T15:21:39.215Z,15.60
2019-05-03T15:24:08.690Z,15.60
2019-05-03T15:26:38.055Z,15.60
2019-05-03T15:29:07.950Z,15.60
2019-05-03T15:31:37.365Z,15.60
2019-05-03T15:34:06.675Z,15.60
2019-05-03T15:36:36.191Z,15.60
2019-05-03T15:39:06.402Z,15.60
2019-05-03T15:41:36.568Z,15.60
2019-05-03T15:44:25.424Z,15.60
2019-05-03T15:47:00.915Z,15.60
2019-05-03T15:49:30.322Z,15.60
2019-05-03T15:51:59.700Z,15.60
2019-05-03T15:54:28.998Z,15.60
2019-05-03T15:56:58.435Z,15.60
2019-05-03T15:59:27.938Z,15.60
2019-05-03T16:01:57.906Z,15.60
2019-05-03T16:04:27.290Z,15.60
2019-05-03T16:06:56.733Z,15.60
2019-05-03T16:09:26.156Z,15.60
2019-05-03T16:11:56.528Z,15.60
2019-05-03T16:14:26.019Z,15.60
2019-05-03T16:16:55.437Z,15.60
2019-05-03T16:19:24.840Z,15.60
2019-05-03T16:21:54.546Z,15.60
2019-05-03T16:24:25.145Z,15.60
2019-05-03T16:27:14.233Z,15.60
2019-05-03T16:29:44.510Z,15.60
2019-05-03T16:32:14.725Z,15.60
2019-05-03T16:34:44.521Z,15.60
2019-05-03T16:37:14.856Z,15.60
2019-05-03T16:39:45.344Z,15.60
2019-05-03T16:42:15.495Z,15.60
2019-05-03T16:44:45.708Z,15.60
2019-05-03T16:47:15.676Z,15.60
2019-05-03T16:49:45.555Z,15.50
2019-05-03T16:52:17.452Z,15.60
2019-05-03T16:54:47.190Z,15.60
2019-05-03T16:57:17.528Z,15.60
2019-05-03T16:59:46.980Z,15.60
2019-05-03T17:02:17.407Z,15.60
2019-05-03T17:05:02.346Z,15.60
2019-05-03T17:07:36.317Z,15.60
2019-05-03T17:10:10.799Z,15.60
2019-05-03T17:12:40.137Z,15.60
2019-05-03T17:15:09.935Z,15.60
2019-05-03T17:17:46.926Z,15.60
2019-05-03T17:20:16.664Z,15.60
2019-05-03T17:22:46.937Z,15.60
2019-05-03T17:25:16.265Z,15.50
2019-05-03T17:27:46.235Z,15.60
2019-05-03T17:30:16.057Z,15.50
2019-05-03T17:32:45.371Z,15.50
2019-05-03T17:35:14.716Z,15.50
2019-05-03T17:37:45.144Z,15.50
2019-05-03T17:40:45.523Z,15.50
2019-05-03T17:43:34.671Z,15.50
2019-05-03T17:46:09.589Z,15.50
2019-05-03T17:48:39.015Z,15.50
2019-05-03T17:51:10.056Z,15.50
2019-05-03T17:53:47.352Z,15.50
2019-05-03T17:56:44.596Z,15.50
2019-05-03T17:59:24.424Z,15.50
2019-05-03T18:02:16.122Z,15.50
2019-05-03T18:04:54.866Z,15.50
2019-05-03T18:07:30.951Z,15.50
2019-05-03T18:10:00.997Z,15.50
2019-05-03T18:12:30.539Z,15.50
2019-05-03T18:15:00.023Z,15.50
2019-05-03T18:17:29.497Z,15.50
2019-05-03T18:19:58.941Z,15.50
2019-05-03T18:22:28.296Z,15.50
2019-05-03T18:24:58.288Z,15.50
2019-05-03T18:27:27.773Z,15.50
2019-05-03T18:29:57.040Z,15.50
2019-05-03T18:32:26.344Z,15.50
2019-05-03T18:34:55.893Z,15.50
2019-05-03T18:37:25.417Z,15.50
2019-05-03T18:39:56.005Z,15.50
2019-05-03T18:42:31.811Z,15.50
2019-05-03T18:45:04.899Z,15.50
2019-05-03T18:47:35.242Z,15.40
2019-05-03T18:50:05.902Z,15.40
2019-05-03T18:52:35.300Z,15.40
2019-05-03T18:55:09.112Z,15.40
2019-05-03T18:57:38.901Z,15.40
2019-05-03T19:00:08.365Z,15.40
2019-05-03T19:02:37.810Z,15.40
2019-05-03T19:05:07.106Z,15.40
2019-05-03T19:07:58.208Z,15.40
2019-05-03T19:10:45.167Z,15.40
2019-05-03T19:13:21.488Z,15.50
2019-05-03T19:15:50.812Z,15.40
2019-05-03T19:18:28.584Z,15.40
2019-05-03T19:20:58.092Z,15.40
2019-05-03T19:23:28.685Z,15.40
2019-05-03T19:25:58.082Z,15.40
2019-05-03T19:28:27.630Z,15.40
2019-05-03T19:30:57.668Z,15.40
2019-05-03T19:33:27.312Z,15.40
2019-05-03T19:35:56.696Z,15.40
2019-05-03T19:38:26.284Z,15.40
2019-05-03T19:40:55.726Z,15.40
2019-05-03T19:43:27.089Z,15.40
2019-05-03T19:45:56.793Z,15.40
2019-05-03T19:48:26.071Z,15.40
2019-05-03T19:50:55.539Z,15.40
2019-05-03T19:53:47.124Z,15.40
2019-05-03T19:56:17.279Z,15.40
2019-05-03T19:58:46.777Z,15.40
2019-05-03T20:01:35.275Z,15.40
2019-05-03T20:04:24.575Z,15.40
2019-05-03T20:07:00.222Z,15.40
2019-05-03T20:09:29.697Z,15.40
2019-05-03T20:11:59.171Z,15.40
2019-05-03T20:14:28.453Z,15.40
2019-05-03T20:16:57.779Z,15.40
2019-05-03T20:19:27.116Z,15.40
2019-05-03T20:21:57.776Z,15.40
2019-05-03T20:24:27.268Z,15.40
2019-05-03T20:26:56.630Z,15.40
2019-05-03T20:29:26.173Z,15.40
2019-05-03T20:31:55.654Z,15.40
2019-05-03T20:34:25.198Z,15.40
2019-05-03T20:36:54.915Z,15.40
2019-05-03T20:39:25.483Z,15.40
2019-05-03T20:41:55.141Z,15.40
2019-05-03T20:44:36.840Z,15.40
2019-05-03T20:47:25.385Z,15.40
2019-05-03T20:50:15.693Z,15.40
2019-05-03T20:52:45.484Z,15.40
2019-05-03T20:55:16.244Z,15.40
2019-05-03T20:57:45.531Z,15.40
2019-05-03T21:00:16.812Z,15.40
2019-05-03T21:02:53.842Z,15.40
2019-05-03T21:05:27.133Z,15.40
2019-05-03T21:07:48.499Z,15.40
2019-05-03T21:10:17.817Z,15.40
2019-05-03T21:12:48.135Z,15.40
2019-05-03T21:15:26.137Z,15.40
2019-05-03T21:18:15.090Z,15.30
2019-05-03T21:20:58.172Z,15.30
2019-05-03T21:23:28.459Z,15.30
2019-05-03T21:26:13.484Z,15.40
2019-05-03T21:28:41.344Z,15.30
2019-05-03T21:31:11.270Z,15.30
2019-05-03T21:33:40.901Z,15.40
2019-05-03T21:36:10.256Z,15.30
2019-05-03T21:38:40.993Z,15.40
2019-05-03T21:41:10.496Z,15.40
2019-05-03T21:43:39.996Z,15.40
2019-05-03T21:46:17.167Z,15.40
2019-05-03T21:48:59.985Z,15.40
2019-05-03T21:51:29.368Z,15.30
2019-05-03T21:53:58.655Z,15.40
2019-05-03T21:56:28.025Z,15.40
2019-05-03T21:58:57.459Z,15.40
2019-05-03T22:01:27.988Z,15.40
2019-05-03T22:03:57.266Z,15.40
2019-05-03T22:06:26.617Z,15.40
2019-05-03T22:08:58.196Z,15.40
2019-05-03T22:11:27.325Z,15.40
2019-05-03T22:13:58.723Z,15.30
2019-05-03T22:16:44.991Z,15.30
2019-05-03T22:19:17.834Z,15.30
2019-05-03T22:22:14.936Z,15.30
2019-05-03T22:24:48.234Z,15.30
2019-05-03T22:27:19.334Z,15.30
2019-05-03T22:29:48.637Z,15.30
2019-05-03T22:32:18.454Z,15.30
2019-05-03T22:34:48.800Z,15.30
2019-05-03T22:37:18.168Z,15.30
2019-05-03T22:39:47.636Z,15.30
2019-05-03T22:42:18.766Z,15.30
2019-05-03T22:44:48.172Z,15.30
2019-05-03T22:47:17.495Z,15.30
2019-05-03T22:49:47.127Z,15.30
2019-05-03T22:52:16.521Z,15.30
2019-05-03T22:54:45.943Z,15.30
2019-05-03T22:57:21.500Z,15.30
2019-05-03T22:59:50.967Z,15.30
2019-05-03T23:02:20.491Z,15.30
2019-05-03T23:04:49.917Z,15.30
2019-05-03T23:07:19.855Z,15.30
2019-05-03T23:09:49.171Z,15.30
2019-05-03T23:12:18.749Z,15.30
2019-05-03T23:14:48.165Z,15.30
2019-05-03T23:17:17.658Z,15.30
2019-05-03T23:19:50.095Z,15.30
2019-05-03T23:22:28.861Z,15.30
2019-05-03T23:24:58.340Z,15.30
2019-05-03T23:27:27.893Z,15.30
2019-05-03T23:29:57.240Z,15.30
2019-05-03T23:32:26.609Z,15.30
2019-05-03T23:34:56.089Z,15.30
2019-05-03T23:37:25.650Z,15.30
2019-05-03T23:39:55.245Z,15.30
2019-05-03T23:42:27.254Z,15.30
2019-05-03T23:44:56.571Z,15.30
2019-05-03T23:47:45.055Z,15.30
2019-05-03T23:50:19.414Z,15.30
2019-05-03T23:52:49.906Z,15.30
2019-05-03T23:55:36.781Z,15.30
2019-05-03T23:58:06.312Z,15.30
